createdAt,value
2024-03-05T00:00:30.524Z,99667.64
2024-03-05T00:03:00.408Z,99664.84
2024-03-05T00:05:30.970Z,99667.08
2024-03-05T00:08:00.967Z,99665.48
2024-03-05T00:10:33.314Z,99665.81
2024-03-05T00:13:04.444Z,99665.61
2024-03-05T00:15:35.250Z,99662.45
2024-03-05T00:18:05.754Z,99665.64
2024-03-05T00:20:36.616Z,99661.89
2024-03-05T00:23:06.401Z,99657.67
2024-03-05T00:25:36.229Z,99658.70
2024-03-05T00:28:06.448Z,99656.19
2024-03-05T00:30:36.226Z,99653.18
2024-03-05T00:33:07.722Z,99656.89
2024-03-05T00:35:37.751Z,99651.02
2024-03-05T00:38:09.821Z,99654.59
2024-03-05T00:40:45.862Z,99650.30
2024-03-05T00:43:16.182Z,99649.34
2024-03-05T00:45:47.564Z,99651.00
2024-03-05T00:48:17.392Z,99650.37
2024-03-05T00:50:47.850Z,99649.32
2024-03-05T00:53:17.723Z,99648.95
2024-03-05T00:55:47.746Z,99653.80
2024-03-05T00:58:17.830Z,99654.30
2024-03-05T01:00:48.368Z,99650.23
2024-03-05T01:03:18.538Z,99642.52
2024-03-05T01:05:48.342Z,99642.52
2024-03-05T01:08:18.519Z,99638.47
2024-03-05T01:10:48.477Z,99635.83
2024-03-05T01:13:20.766Z,99634.56
2024-03-05T01:15:51.388Z,99636.34
2024-03-05T01:18:21.821Z,99638.71
2024-03-05T01:20:51.748Z,99636.34
2024-03-05T01:23:21.733Z,99642.90
2024-03-05T01:25:51.829Z,99640.52
2024-03-05T01:28:21.930Z,99642.30
2024-03-05T01:30:51.679Z,99642.87
2024-03-05T01:33:21.957Z,99641.98
2024-03-05T01:35:53.123Z,99638.10
2024-03-05T01:38:23.434Z,99638.94
2024-03-05T01:40:54.144Z,99646.42
2024-03-05T01:43:23.887Z,99647.68
2024-03-05T01:45:54.438Z,99647.44
2024-03-05T01:48:24.365Z,99650.13
2024-03-05T01:50:54.088Z,99647.25
2024-03-05T01:53:23.849Z,99660.77
2024-03-05T01:55:54.497Z,99660.89
2024-03-05T01:58:24.492Z,99660.23
2024-03-05T02:00:54.413Z,99663.55
2024-03-05T02:03:24.306Z,99657.16
2024-03-05T02:05:54.935Z,99659.30
2024-03-05T02:08:25.689Z,99660.26
2024-03-05T02:10:55.670Z,99654.03
2024-03-05T02:13:26.519Z,99657.59
2024-03-05T02:15:56.387Z,99658.88
2024-03-05T02:18:27.338Z,99663.95
2024-03-05T13:36:47.829Z,99575.11
2024-03-05T13:39:23.218Z,99574.00
2024-03-05T13:41:54.839Z,99572.92
2024-03-05T13:44:25.341Z,99574.45
2024-03-05T13:46:55.259Z,99581.29
2024-03-05T13:49:25.681Z,99579.17
2024-03-05T13:51:55.978Z,99581.14
2024-03-05T13:54:26.026Z,99581.69
2024-03-05T13:56:55.900Z,99580.01
2024-03-05T13:59:25.962Z,99577.39
2024-03-05T14:01:56.775Z,99577.42
2024-03-05T14:04:26.764Z,99575.30
2024-03-05T14:06:56.773Z,99574.98
2024-03-05T14:09:27.580Z,99571.88
2024-03-05T14:11:58.403Z,99573.02
2024-03-05T14:14:28.525Z,99571.20
2024-03-05T14:16:58.384Z,99573.24
2024-03-05T14:19:29.692Z,99574.26
2024-03-05T14:22:01.617Z,99577.95
2024-03-05T14:24:31.685Z,99582.04
2024-03-05T14:27:01.875Z,99583.16
2024-03-05T14:29:31.769Z,99581.31
2024-03-05T14:32:01.648Z,99583.88
2024-03-05T14:34:31.574Z,99583.75
2024-03-05T14:37:01.870Z,99585.51
2024-03-05T14:39:32.031Z,99587.85
2024-03-05T14:42:02.179Z,99589.67
2024-03-05T14:44:32.122Z,99588.85
2024-03-05T14:47:02.461Z,99592.10
2024-03-05T14:49:32.943Z,99596.06
2024-03-05T14:52:02.812Z,99598.63
2024-03-05T14:54:32.836Z,99600.27
2024-03-05T14:57:02.770Z,99602.40
2024-03-05T14:59:33.002Z,99604.74
2024-03-05T15:02:03.128Z,99608.27
2024-03-05T15:04:33.536Z,99612.70
2024-03-05T15:07:04.227Z,99615.56
2024-03-05T15:09:36.779Z,99617.61
2024-03-05T15:12:10.941Z,99619.32
2024-03-05T15:14:43.498Z,99622.10
2024-03-05T15:17:14.121Z,99625.02
2024-03-05T15:19:43.982Z,99627.59
2024-03-05T15:22:13.950Z,99630.68
2024-03-05T15:24:44.143Z,99632.85
2024-03-05T15:27:14.401Z,99629.64
2024-03-05T15:29:44.299Z,99637.91
2024-03-05T15:32:14.465Z,99637.98
2024-03-05T15:34:44.558Z,99641.40
2024-03-05T15:37:15.321Z,99645.08
2024-03-05T15:39:45.486Z,99646.98
2024-03-05T15:42:15.456Z,99650.44
2024-03-05T15:44:45.509Z,99653.73
2024-03-05T15:47:15.466Z,99650.45
2024-03-05T15:49:45.471Z,99650.16
2024-03-05T15:52:15.533Z,99654.05
2024-03-05T15:54:45.548Z,99654.45
2024-03-05T15:57:20.952Z,99655.09
2024-03-05T16:00:16.733Z,99659.95
2024-03-05T16:02:47.299Z,99661.61
2024-03-05T16:05:26.066Z,99661.28
2024-03-05T16:08:02.411Z,99662.80
2024-03-05T16:10:38.739Z,99660.27
2024-03-05T16:13:15.390Z,99660.05
2024-03-05T16:15:47.603Z,99668.00
2024-03-05T16:18:17.699Z,99669.15
2024-03-05T16:20:49.112Z,99673.74
2024-03-05T16:23:19.098Z,99671.85
2024-03-05T16:25:49.170Z,99674.45
2024-03-05T16:28:19.289Z,99674.93
2024-03-05T16:30:49.411Z,99671.38
2024-03-05T16:33:19.473Z,99674.96
2024-03-05T16:35:50.391Z,99676.08
2024-03-05T16:38:20.269Z,99672.91
2024-03-05T16:40:50.260Z,99675.95
2024-03-05T16:43:20.487Z,99673.80
2024-03-05T16:45:50.381Z,99675.65
2024-03-05T16:48:20.550Z,99674.83
2024-03-05T16:50:50.565Z,99675.92
2024-03-05T16:53:20.981Z,99679.95
2024-03-05T16:55:50.847Z,99676.23
2024-03-05T16:58:20.715Z,99676.82
2024-03-05T17:00:56.228Z,99676.58
2024-03-05T17:03:30.579Z,99676.41
2024-03-05T17:06:02.867Z,99674.72
2024-03-05T17:08:33.206Z,99677.10
2024-03-05T17:11:10.376Z,99675.59
2024-03-05T17:13:42.778Z,99678.86
2024-03-05T17:16:12.917Z,99675.16
2024-03-05T17:18:42.784Z,99674.39
2024-03-05T17:21:13.342Z,99677.64
2024-03-05T17:23:47.681Z,99682.71
2024-03-05T17:26:18.045Z,99684.13
2024-03-05T17:28:48.051Z,99689.54
2024-03-05T17:31:17.949Z,99684.54
2024-03-05T20:07:23.887Z,99720.45
2024-03-05T20:09:55.973Z,99722.30
2024-03-05T20:12:27.621Z,99718.12
2024-03-05T20:15:10.094Z,99727.52
2024-03-05T20:17:44.512Z,99722.70
2024-03-05T20:20:18.960Z,99723.70
